createdAt,value
2018-12-19T00:01:47.337Z,100708.36
2018-12-19T00:04:19.921Z,100713.59
2018-12-19T00:06:57.776Z,100706.05
2018-12-19T00:09:35.184Z,100700.55
2018-12-19T00:12:07.835Z,100698.95
2018-12-19T00:14:41.158Z,100708.03
2018-12-19T00:17:11.746Z,100705.47
2018-12-19T00:19:43.622Z,100708.66
2018-12-19T00:22:14.477Z,100711.64
2018-12-19T00:24:52.350Z,100702.80
2018-12-19T00:27:26.318Z,100700.47
2018-12-19T00:30:02.527Z,100700.04
2018-12-19T00:32:32.279Z,100699.81
2018-12-19T00:35:01.968Z,100698.21
2018-12-19T00:37:32.715Z,100690.13
2018-12-19T00:40:09.076Z,100698.29
2018-12-19T00:42:45.652Z,100692.78
2018-12-19T00:45:16.820Z,100687.39
2018-12-19T00:47:44.973Z,100682.65
2018-12-19T00:50:13.170Z,100681.48
2018-12-19T00:52:41.411Z,100665.56
2018-12-19T00:55:09.595Z,100674.02
2018-12-19T00:57:37.769Z,100672.02
2018-12-19T01:00:07.881Z,100675.70
2018-12-19T01:02:36.149Z,100669.91
2018-12-19T01:05:04.607Z,100669.36
2018-12-19T01:07:32.781Z,100669.36
2018-12-19T01:10:00.885Z,100669.06
2018-12-19T01:12:29.111Z,100671.45
2018-12-19T01:14:57.385Z,100668.73
2018-12-19T01:17:25.514Z,100654.77
2018-12-19T01:19:53.601Z,100671.81
2018-12-19T01:22:21.761Z,100669.52
2018-12-19T01:24:49.849Z,100670.22
2018-12-19T01:27:17.944Z,100670.84
2018-12-19T01:29:46.111Z,100683.42
2018-12-19T01:32:14.315Z,100671.88
2018-12-19T01:34:42.406Z,100686.61
2018-12-19T01:37:10.485Z,100681.11
2018-12-19T01:39:38.680Z,100691.69
2018-12-19T01:42:06.829Z,100690.42
2018-12-19T01:44:34.951Z,100684.66
2018-12-19T01:47:03.117Z,100683.34
2018-12-19T01:49:31.273Z,100683.47
2018-12-19T01:51:59.377Z,100680.54
2018-12-19T01:54:27.479Z,100669.78
2018-12-19T01:56:55.660Z,100667.61
2018-12-19T01:59:23.733Z,100667.41
2018-12-19T02:01:51.810Z,100667.05
2018-12-19T02:04:19.915Z,100662.76
2018-12-19T02:06:48.078Z,100658.13
2018-12-19T02:09:16.218Z,100661.94
2018-12-19T02:11:44.310Z,100658.19
2018-12-19T02:14:12.402Z,100659.00
2018-12-19T02:16:40.510Z,100652.16
2018-12-19T02:19:08.603Z,100664.86
2018-12-19T02:21:36.749Z,100657.00
2018-12-19T02:24:05.219Z,100662.39
2018-12-19T02:26:33.439Z,100656.28
2018-12-19T02:29:01.630Z,100662.55
2018-12-19T02:31:29.757Z,100671.88
2018-12-19T02:33:58.048Z,100661.39
2018-12-19T02:36:26.144Z,100666.44
2018-12-19T02:38:54.239Z,100651.85
2018-12-19T02:41:22.434Z,100647.39
2018-12-19T02:43:50.632Z,100655.67
2018-12-19T02:46:18.832Z,100654.51
2018-12-19T02:48:46.913Z,100654.84
2018-12-19T02:51:15.139Z,100651.24
2018-12-19T02:53:43.238Z,100646.22
2018-12-19T02:56:11.346Z,100655.77
2018-12-19T02:58:39.445Z,100652.77
2018-12-19T03:01:07.619Z,100646.95
2018-12-19T03:03:35.877Z,100640.89
2018-12-19T03:06:03.986Z,100642.62
2018-12-19T03:08:32.216Z,100628.95
2018-12-19T03:11:00.494Z,100629.52
2018-12-19T03:13:29.657Z,100632.38
2018-12-19T03:15:57.762Z,100639.46
2018-12-19T03:18:25.893Z,100632.94
2018-12-19T03:20:54.013Z,100638.58
2018-12-19T03:23:22.112Z,100648.45
2018-12-19T03:25:50.238Z,100647.20
2018-12-19T03:28:18.367Z,100641.99
2018-12-19T03:30:46.652Z,100644.77
2018-12-19T03:33:14.771Z,100640.19
2018-12-19T03:35:42.881Z,100636.52
2018-12-19T03:38:15.158Z,100632.95
2018-12-19T03:40:43.274Z,100625.79
2018-12-19T03:43:11.470Z,100622.31
2018-12-19T03:45:39.637Z,100631.61
2018-12-19T03:48:09.723Z,100635.38
2018-12-19T03:50:37.881Z,100634.36
2018-12-19T03:53:06.020Z,100633.87
2018-12-19T03:55:34.274Z,100642.91
2018-12-19T03:58:02.599Z,100631.02
2018-12-19T04:00:30.746Z,100635.74
2018-12-19T04:03:05.274Z,100638.03
2018-12-19T04:05:33.367Z,100627.08
2018-12-19T04:08:01.492Z,100619.77
2018-12-19T04:10:29.583Z,100620.05
2018-12-19T04:12:57.746Z,100615.08
2018-12-19T04:15:25.844Z,100607.30
2018-12-19T04:17:53.957Z,100613.15
2018-12-19T04:20:22.071Z,100625.95
2018-12-19T04:22:50.164Z,100633.59
2018-12-19T04:25:18.286Z,100636.02
2018-12-19T04:27:46.434Z,100629.01
2018-12-19T04:30:14.570Z,100617.05
2018-12-19T04:32:42.862Z,100618.91
2018-12-19T04:35:11.070Z,100614.70
2018-12-19T04:37:39.423Z,100609.77
2018-12-19T04:40:07.672Z,100613.87
2018-12-19T04:42:35.862Z,100613.52
2018-12-19T04:45:04.205Z,100612.67
2018-12-19T04:47:32.306Z,100610.80
2018-12-19T04:50:00.552Z,100609.28
2018-12-19T04:52:28.653Z,100614.89
2018-12-19T04:54:56.742Z,100612.83
2018-12-19T04:57:24.837Z,100609.48
2018-12-19T04:59:52.933Z,100614.13
2018-12-19T05:02:21.010Z,100604.63
2018-12-19T05:04:49.280Z,100605.81
2018-12-19T05:07:18.213Z,100600.67
2018-12-19T05:09:46.390Z,100607.95
2018-12-19T05:12:14.484Z,100602.20
2018-12-19T05:14:42.768Z,100608.37
2018-12-19T05:17:10.973Z,100615.30
2018-12-19T05:19:39.089Z,100615.73
2018-12-19T05:22:07.441Z,100614.27
2018-12-19T05:24:35.697Z,100608.88
2018-12-19T05:27:03.975Z,100618.46
2018-12-19T05:29:32.085Z,100613.80
2018-12-19T05:32:00.195Z,100620.18
2018-12-19T05:34:28.318Z,100617.39
2018-12-19T05:36:56.434Z,100624.90
2018-12-19T05:39:24.654Z,100623.66
2018-12-19T05:41:52.746Z,100626.50
2018-12-19T05:44:20.882Z,100612.69
2018-12-19T05:46:49.021Z,100603.98
2018-12-19T05:49:17.237Z,100607.91
2018-12-19T05:51:45.393Z,100610.52
2018-12-19T05:54:20.117Z,100597.55
2018-12-19T05:56:48.231Z,100596.41
2018-12-19T05:59:16.301Z,100603.47
2018-12-19T06:01:44.393Z,100606.86
2018-12-19T06:04:12.517Z,100606.53
2018-12-19T06:06:40.638Z,100605.77
2018-12-19T06:09:08.717Z,100598.88
2018-12-19T06:11:36.892Z,100606.98
2018-12-19T06:14:05.069Z,100603.31
2018-12-19T06:16:33.245Z,100607.07
2018-12-19T06:19:01.345Z,100601.33
2018-12-19T06:21:29.537Z,100604.27
2018-12-19T06:23:57.620Z,100604.34
2018-12-19T06:26:25.825Z,100605.71
2018-12-19T06:28:53.960Z,100596.69
2018-12-19T06:31:22.052Z,100602.23
2018-12-19T06:33:50.319Z,100604.77
2018-12-19T06:36:18.512Z,100611.80
2018-12-19T06:38:46.603Z,100600.07
2018-12-19T06:41:14.869Z,100600.05
2018-12-19T06:43:43.137Z,100595.67
2018-12-19T06:46:11.474Z,100597.58
2018-12-19T06:48:39.661Z,100594.05
2018-12-19T06:51:07.967Z,100596.10
2018-12-19T06:53:36.422Z,100585.84
2018-12-19T06:56:09.781Z,100577.05
2018-12-19T06:58:38.119Z,100586.77
2018-12-19T07:01:06.506Z,100589.73
2018-12-19T07:03:34.646Z,100602.59
2018-12-19T07:06:03.161Z,100608.36
2018-12-19T07:08:31.324Z,100620.00
2018-12-19T07:10:59.630Z,100612.43
2018-12-19T07:13:28.174Z,100620.41
2018-12-19T07:15:56.657Z,100619.52
2018-12-19T07:18:24.868Z,100618.53
2018-12-19T07:20:53.145Z,100617.52
2018-12-19T07:23:21.382Z,100615.77
2018-12-19T07:25:49.733Z,100616.50
2018-12-19T07:28:17.933Z,100607.94
2018-12-19T07:30:46.139Z,100613.77
2018-12-19T07:33:14.441Z,100623.44
2018-12-19T07:35:42.657Z,100629.87
2018-12-19T07:38:11.374Z,100620.77
2018-12-19T07:40:45.491Z,100625.34
2018-12-19T07:43:09.765Z,100613.06
2018-12-19T07:45:37.974Z,100626.99
2018-12-19T07:48:06.248Z,100625.65
2018-12-19T07:50:34.434Z,100627.32
2018-12-19T07:53:02.834Z,100628.19
2018-12-19T07:55:34.477Z,100626.34
2018-12-19T07:58:02.686Z,100621.26
2018-12-19T08:00:30.979Z,100619.25
2018-12-19T08:03:00.211Z,100618.56
2018-12-19T08:05:28.535Z,100629.89
2018-12-19T08:08:02.362Z,100618.73
2018-12-19T08:10:30.714Z,100617.46
2018-12-19T08:12:58.973Z,100626.44
2018-12-19T08:15:27.151Z,100613.65
2018-12-19T08:17:55.373Z,100621.27
2018-12-19T08:20:23.566Z,100620.64
2018-12-19T08:22:51.868Z,100616.77
2018-12-19T08:25:20.069Z,100618.20
2018-12-19T08:27:48.294Z,100624.34
2018-12-19T08:30:16.489Z,100618.83
2018-12-19T08:32:44.742Z,100630.99
2018-12-19T08:35:12.934Z,100637.66
2018-12-19T08:37:41.151Z,100644.91
2018-12-19T08:40:09.449Z,100646.08
2018-12-19T08:42:38.260Z,100652.94
2018-12-19T08:45:06.570Z,100650.70
2018-12-19T08:47:34.754Z,100650.17
2018-12-19T08:50:03.165Z,100654.80
2018-12-19T08:52:31.451Z,100657.06
2018-12-19T08:55:07.167Z,100654.11
2018-12-19T08:57:35.446Z,100659.60
2018-12-19T09:00:03.784Z,100655.40
2018-12-19T09:02:32.077Z,100659.99
2018-12-19T09:05:00.358Z,100662.84
2018-12-19T09:07:28.670Z,100664.34
2018-12-19T09:09:56.859Z,100655.17
2018-12-19T09:12:25.192Z,100654.90
2018-12-19T09:14:53.595Z,100654.30
2018-12-19T09:17:21.819Z,100652.82
2018-12-19T09:19:50.537Z,100647.84
2018-12-19T09:22:19.314Z,100642.75
2018-12-19T09:24:47.562Z,100646.64
2018-12-19T09:27:15.833Z,100660.94
2018-12-19T09:29:44.061Z,100662.11
2018-12-19T09:32:12.255Z,100666.81
2018-12-19T09:34:40.473Z,100667.17
2018-12-19T09:37:08.783Z,100666.88
2018-12-19T09:39:37.006Z,100666.30
2018-12-19T09:42:05.224Z,100661.77
2018-12-19T09:44:33.430Z,100666.73
2018-12-19T09:47:01.569Z,100669.06
2018-12-19T09:49:29.674Z,100669.73
2018-12-19T09:51:58.334Z,100675.72
2018-12-19T09:54:26.525Z,100672.95
2018-12-19T09:56:54.695Z,100666.02
2018-12-19T09:59:22.869Z,100662.22
2018-12-19T10:01:50.975Z,100664.25
2018-12-19T10:04:19.294Z,100667.90
2018-12-19T10:06:48.513Z,100660.65
2018-12-19T10:09:16.761Z,100660.84
2018-12-19T10:11:44.866Z,100651.50
2018-12-19T10:14:12.950Z,100657.59
2018-12-19T10:16:41.032Z,100660.52
2018-12-19T10:19:09.478Z,100652.66
2018-12-19T10:21:37.648Z,100652.86
2018-12-19T10:24:05.807Z,100655.51
2018-12-19T10:26:34.469Z,100657.87
2018-12-19T10:29:02.820Z,100652.73
2018-12-19T10:31:30.886Z,100652.06
2018-12-19T10:33:58.979Z,100650.03
2018-12-19T10:36:32.474Z,100639.80
2018-12-19T10:39:00.559Z,100644.50
2018-12-19T10:41:28.834Z,100646.51
2018-12-19T10:43:57.502Z,100642.80
2018-12-19T10:46:25.592Z,100636.81
2018-12-19T10:48:53.847Z,100642.80
2018-12-19T10:51:21.963Z,100644.58
2018-12-19T10:53:50.213Z,100632.33
2018-12-19T10:56:19.432Z,100628.80
2018-12-19T10:58:47.728Z,100631.35
2018-12-19T11:01:15.829Z,100621.59
2018-12-19T11:03:44.569Z,100622.23
2018-12-19T11:06:12.805Z,100630.55
2018-12-19T11:08:40.926Z,100630.30
2018-12-19T11:11:09.091Z,100628.22
2018-12-19T11:13:37.281Z,100632.41
2018-12-19T11:16:05.445Z,100629.63
2018-12-19T11:18:33.575Z,100626.35
2018-12-19T11:21:01.728Z,100633.30
2018-12-19T11:23:29.817Z,100617.83
2018-12-19T11:25:57.906Z,100616.08
2018-12-19T11:28:26.004Z,100613.53
2018-12-19T11:30:54.098Z,100616.51
2018-12-19T11:33:22.190Z,100622.59
2018-12-19T11:35:50.345Z,100615.83
2018-12-19T11:38:18.433Z,100613.66
2018-12-19T11:40:46.545Z,100610.85
2018-12-19T11:43:14.659Z,100611.02
2018-12-19T11:45:42.891Z,100611.45
2018-12-19T11:48:11.061Z,100607.98
2018-12-19T11:50:39.825Z,100610.88
2018-12-19T11:53:07.913Z,100600.60
2018-12-19T11:55:36.085Z,100604.66
2018-12-19T11:58:04.264Z,100602.87
2018-12-19T12:00:32.357Z,100604.41
2018-12-19T12:03:00.562Z,100593.48
2018-12-19T12:05:28.751Z,100584.20
2018-12-19T12:07:57.014Z,100583.99
2018-12-19T12:10:25.260Z,100587.52
2018-12-19T12:12:53.513Z,100591.87
2018-12-19T12:15:21.794Z,100588.31
2018-12-19T12:17:50.198Z,100590.69
2018-12-19T12:20:18.412Z,100587.03
2018-12-19T12:22:53.138Z,100580.45
2018-12-19T12:25:21.346Z,100566.55
2018-12-19T12:27:52.134Z,100560.75
2018-12-19T12:30:20.930Z,100550.14
2018-12-19T12:32:49.908Z,100557.31
2018-12-19T12:35:21.327Z,100558.61
2018-12-19T12:37:50.967Z,100554.78
2018-12-19T12:40:19.497Z,100556.42
2018-12-19T12:42:47.756Z,100565.13
2018-12-19T12:45:16.111Z,100565.12
2018-12-19T12:47:45.218Z,100549.59
2018-12-19T12:50:13.607Z,100551.63
2018-12-19T12:52:41.974Z,100544.70
2018-12-19T12:55:11.025Z,100546.88
2018-12-19T12:57:39.584Z,100541.58
2018-12-19T13:00:08.108Z,100532.42
2018-12-19T13:02:37.435Z,100533.78
2018-12-19T13:05:06.980Z,100528.13
2018-12-19T13:07:35.365Z,100521.83
2018-12-19T13:10:04.132Z,100512.35
2018-12-19T13:12:32.420Z,100512.00
2018-12-19T13:15:00.757Z,100513.50
2018-12-19T13:17:29.070Z,100522.80
2018-12-19T13:19:57.442Z,100531.92
2018-12-19T13:22:25.786Z,100516.48
2018-12-19T13:24:54.298Z,100521.81
2018-12-19T13:27:22.605Z,100532.09
2018-12-19T13:32:30.803Z,100514.49
2018-12-19T13:34:59.095Z,100521.81
2018-12-19T13:37:27.629Z,100518.98
2018-12-19T13:39:56.192Z,100515.83
2018-12-19T13:42:24.524Z,100519.46
2018-12-19T13:44:52.867Z,100517.30
2018-12-19T13:47:21.200Z,100514.31
2018-12-19T13:49:49.624Z,100514.50
2018-12-19T13:52:17.939Z,100515.31
2018-12-19T13:54:47.615Z,100517.98
2018-12-19T13:57:15.983Z,100512.50
2018-12-19T13:59:45.429Z,100514.80
2018-12-19T14:02:13.854Z,100510.16
2018-12-19T14:04:42.389Z,100508.66
2018-12-19T14:07:12.648Z,100506.34
2018-12-19T14:09:41.659Z,100514.51
2018-12-19T14:12:12.422Z,100509.52
2018-12-19T14:14:40.340Z,100504.69
2018-12-19T14:17:08.794Z,100500.68
2018-12-19T14:19:37.132Z,100496.05
2018-12-19T14:22:05.499Z,100495.89
2018-12-19T14:24:34.703Z,100487.58
2018-12-19T14:27:02.970Z,100491.94
2018-12-19T14:29:31.321Z,100488.92
2018-12-19T14:31:59.570Z,100471.14
2018-12-19T14:34:27.858Z,100465.64
2018-12-19T14:36:56.204Z,100472.28
2018-12-19T14:39:24.515Z,100468.14
2018-12-19T14:41:52.738Z,100462.02
2018-12-19T14:44:21.223Z,100470.31
2018-12-19T14:46:49.450Z,100470.48
2018-12-19T14:49:17.665Z,100483.95
2018-12-19T14:51:46.035Z,100485.30
2018-12-19T14:54:14.252Z,100488.45
2018-12-19T14:56:42.500Z,100492.08
2018-12-19T14:59:10.802Z,100502.22
2018-12-19T15:01:39.017Z,100508.20
2018-12-19T15:04:07.258Z,100513.69
2018-12-19T15:06:35.558Z,100515.19
2018-12-19T15:09:05.271Z,100511.99
2018-12-19T15:11:33.574Z,100502.70
2018-12-19T15:14:01.771Z,100499.73
2018-12-19T15:16:29.978Z,100496.55
2018-12-19T15:18:58.181Z,100490.09
2018-12-19T15:21:26.397Z,100493.41
2018-12-19T15:23:54.590Z,100500.88
2018-12-19T15:26:22.790Z,100499.38
2018-12-19T15:28:51.012Z,100496.55
2018-12-19T15:31:19.226Z,100493.90
2018-12-19T15:33:47.390Z,100502.70
2018-12-19T15:36:16.089Z,100500.23
2018-12-19T15:38:50.653Z,100504.56
2018-12-19T15:41:18.801Z,100498.06
2018-12-19T15:43:46.958Z,100497.89
2018-12-19T15:46:15.186Z,100510.85
2018-12-19T15:48:43.268Z,100505.54
2018-12-19T15:51:11.390Z,100498.90
2018-12-19T15:53:39.513Z,100500.72
2018-12-19T15:56:07.729Z,100502.70
2018-12-19T15:58:35.904Z,100505.05
2018-12-19T16:01:04.782Z,100505.19
2018-12-19T16:03:33.011Z,100506.52
2018-12-19T16:06:01.107Z,100507.53
2018-12-19T16:08:29.405Z,100508.20
2018-12-19T16:10:57.514Z,100510.85
2018-12-19T16:13:25.625Z,100520.64
2018-12-19T16:15:53.742Z,100522.14
2018-12-19T16:18:21.846Z,100522.80
2018-12-19T16:20:49.966Z,100528.11
2018-12-19T16:23:18.169Z,100529.09
2018-12-19T16:25:46.281Z,100530.94
2018-12-19T16:28:14.399Z,100524.30
2018-12-19T16:30:42.498Z,100525.28
2018-12-19T16:33:10.641Z,100527.63
2018-12-19T16:35:38.777Z,100526.30
2018-12-19T16:38:06.890Z,100521.65
2018-12-19T16:40:36.097Z,100518.47
2018-12-19T16:43:04.353Z,100507.53
2018-12-19T16:45:32.610Z,100509.02
2018-12-19T16:48:00.755Z,100505.69
2018-12-19T16:50:28.853Z,100512.52
2018-12-19T16:52:56.940Z,100516.48
2018-12-19T16:55:25.097Z,100511.52
2018-12-19T16:57:53.720Z,100514.00
2018-12-19T17:00:21.836Z,100514.66
2018-12-19T17:02:50.174Z,100509.70
2018-12-19T17:05:18.373Z,100507.21
2018-12-19T17:07:46.724Z,100513.51
2018-12-19T17:10:15.007Z,100512.00
2018-12-19T17:12:43.178Z,100500.72
2018-12-19T17:15:11.449Z,100501.20
2018-12-19T17:17:39.536Z,100495.75
2018-12-19T17:20:07.897Z,100491.42
2018-12-19T17:22:35.999Z,100492.58
2018-12-19T17:25:04.761Z,100489.59
2018-12-19T17:27:32.849Z,100485.27
2018-12-19T17:30:07.644Z,100476.63
2018-12-19T17:32:40.233Z,100486.55
2018-12-19T17:35:15.031Z,100489.38
2018-12-19T17:37:57.953Z,100491.63
2018-12-19T17:40:40.125Z,100493.53
2018-12-19T17:43:30.995Z,100501.23
2018-12-19T17:49:30.667Z,100510.69
2018-12-19T17:52:19.543Z,100511.05
2018-12-19T17:54:54.589Z,100506.59
2018-12-19T17:57:28.004Z,100503.83
2018-12-19T18:00:02.395Z,100500.63
2018-12-19T18:02:40.093Z,100501.34
2018-12-19T18:05:22.261Z,100483.48
2018-12-19T18:07:54.743Z,100486.67
2018-12-19T18:43:29.381Z,100463.01
2018-12-19T18:46:12.886Z,100462.20
2018-12-19T18:49:01.894Z,100451.11
2018-12-19T18:51:43.255Z,100447.96
2018-12-19T18:54:19.907Z,100441.31
2018-12-19T18:57:00.167Z,100450.42
2018-12-19T19:02:17.447Z,100440.28
2018-12-19T19:04:58.023Z,100438.59
2018-12-19T19:07:34.968Z,100440.43
2018-12-19T19:10:12.667Z,100438.61
2018-12-19T19:12:52.458Z,100436.95
2018-12-19T19:15:25.452Z,100444.37
2018-12-19T19:18:12.790Z,100451.17
2018-12-19T19:20:47.012Z,100443.70
2018-12-19T19:23:24.065Z,100451.02
2018-12-19T19:26:03.919Z,100450.70
2018-12-19T19:28:51.596Z,100448.38
2018-12-19T19:51:27.070Z,100446.93
2018-12-19T19:57:05.973Z,100461.34
2018-12-19T19:59:47.619Z,100458.34
2018-12-19T20:02:27.291Z,100462.66
2018-12-19T22:10:04.219Z,100414.31
2018-12-19T22:12:48.863Z,100417.70
2018-12-19T22:15:33.194Z,100411.08
2018-12-19T22:18:11.824Z,100408.57
2018-12-19T22:20:48.657Z,100410.98
2018-12-19T22:23:29.832Z,100414.89
2018-12-19T22:26:07.392Z,100419.20
2018-12-19T22:28:46.092Z,100412.56
2018-12-19T22:31:24.791Z,100417.38
2018-12-19T22:34:02.199Z,100417.88
2018-12-19T22:36:37.052Z,100416.89
2018-12-19T23:10:14.550Z,100411.94
2018-12-19T23:15:35.830Z,100413.22
2018-12-19T23:18:10.549Z,100413.75
2018-12-19T23:20:46.822Z,100409.25
2018-12-19T23:23:16.225Z,100417.37
2018-12-19T23:28:40.629Z,100413.22
2018-12-19T23:31:13.300Z,100412.25
2018-12-19T23:33:43.103Z,100410.57
2018-12-19T23:36:12.518Z,100404.11
2018-12-19T23:38:41.774Z,100406.11
2018-12-19T23:41:14.808Z,100415.38
2018-12-19T23:43:43.745Z,100414.72
2018-12-19T23:46:11.914Z,100414.70
2018-12-19T23:48:40.005Z,100413.31
2018-12-19T23:51:08.183Z,100415.31
2018-12-19T23:53:36.362Z,100417.13
2018-12-19T23:56:04.567Z,100411.14
2018-12-19T23:58:32.736Z,100410.47
